AirNav   BOSE A20 Aviation Headset
 
 1619 users online  

2NK4 Westchester Resco Heliport
Peekskill, New York, USA

GOING TO PEEKSKILL?


FAA INFORMATION EFFECTIVE 26 APRIL 2018

Location

FAA Identifier: 2NK4
Lat/Long: 41-16-38.3380N / 073-56-25.4990W
41-16.638967N / 073-56.424983W
41.2773161 / -73.9404164
(estimated)
Elevation: 72 ft. / 22 m (estimated)
Variation: 13W (1985)
From city: 1 mile NE of PEEKSKILL, NY
Time zone: UTC -4 (UTC -5 during Standard Time)
Zip code: 10566

Heliport Operations

Heliport use: Private use. Permission required prior to landing
Activation date: 06/1987
Control tower: no
ARTCC: NEW YORK CENTER
FSS: NEW YORK FLIGHT SERVICE STATION
Attendance: UNATNDD
Segmented circle: no

Heliport Communications

WX ASOS at HPN (16 nm SE): PHONE 914-288-0216

Nearby radio navigation aids

VOR radial/distance  VOR name  Freq  Var
CMKr281/16.2CARMEL VOR/DME116.6012W
IGNr205/23.9KINGSTON VOR/DME117.6012W
TEBr023/26.3TETERBORO VOR/DME108.4011W
SAXr076/29.8SPARTA VORTAC115.7011W
LGAr006/29.8LA GUARDIA VOR/DME113.1012W
HUOr116/30.4HUGUENOT VOR/DME116.1011W
PWLr219/33.3PAWLING VOR/DME114.3012W
BDRr293/37.5BRIDGEPORT VOR/DME108.8012W
JFKr001/39.4KENNEDY VOR/DME115.9012W
CRIr008/39.9CANARSIE VOR/DME112.3011W

 
NDB name  Hdg/Dist  Freq  Var  ID
STANWYCK175/15.826112WSKU ... -.- ..-
CLERA274/37.836214WJWE .--- .-- .
CHATHAM048/39.125413WCAT -.-. .- -

Heliport Services

Runway Information

Helipad H1

Dimensions: 30 x 30 ft. / 9 x 9 m
Surface: asphalt
Traffic pattern: leftleft

Heliport Ownership and Management from official FAA records

Ownership: Privately-owned
Owner: WESTCHESTER RESCO CO. L.P.
1 CHARLES POINT AVE.
PEEKSKILL, NY 10566
Phone 914-739-9304
Manager: BRETT BAKER
1 CHARLES POINT AVE.
PEEKSKILL, NY 10566
Phone 914-739-9304
ADDITIONAL CONTACT: JIM PRYOR 914-739-9304 EX. 214

Instrument Procedures

There are no published instrument procedures at 2NK4.

Some nearby airports with instrument procedures:

KSWF - Stewart International Airport (15 nm NW)
KHPN - Westchester County Airport (16 nm SE)
KMGJ - Orange County Airport (20 nm NW)
4N1 - Greenwood Lake Airport (20 nm SW)
KPOU - Hudson Valley Regional Airport (21 nm N)
 
Loc | Ops | Rwys | IFR | FBO | Links
Com | Nav | Svcs | Stats | Notes

AirNav Hotels Sweepstakes
 
Area around 2NK4 (Westchester Resco Heliport)
 
Road maps at: MapQuest Bing Google
 
Aerial photo
No photo
 
Sectional chart

 
Airport distance calculator
Flying to Westchester Resco Heliport? Find the distance to fly.

From to 2NK4

Sunrise and sunset
Times for 21-May-2018
 Local
(UTC-4)
 Zulu
(UTC)
Morning civil twilight05:0109:01
Sunrise05:3309:33
Sunset20:1200:12
Evening civil twilight20:4400:44

Current date and time
Zulu (UTC)  21-May-2018 18:27:42
Local (UTC-4)  21-May-2018 14:27:42
 
METAR
KSWF 
15nm NW 
211745Z 00000KT 20SM SCT150 22/09 A3019
KHPN 
17nm SE 
211756Z VRB04KT 10SM CLR 22/06 A3017 RMK AO2 SLP213 T02220056 10228 20156 58010
KMGJ 
21nm NW 
SuperAWOS
211754Z AUTO VRB03KT 10SM CLR 23/09 A3016 RMK AO2 SLP210 T02280094 10233 20144 58016
KDXR 
21nm E 
211753Z VRB05KT 10SM CLR 23/07 A3018 RMK AO2 SLP216 T02280067 10228 20150 58014
KPOU 
22nm N 
211753Z 31008KT 10SM CLR 23/08 A3016 RMK AO2 SLP209 T02280078 10233 20144 58015 $
KTEB 
25nm S 
211751Z 00000KT 10SM CLR 24/09 A3015 RMK AO2 SLP210 T02440089 10244 20172 58013
KCDW 
28nm SW 
211753Z 22004KT 10SM CLR 24/07 A3017 RMK AO2 SLP219 T02390067 10239 20167 58015
TAF
KSWF 
15nm NW 
211740Z 2118/2224 VRB02KT P6SM SCT250 FM220400 VRB03KT P6SM SCT100 BKN150 OVC250 FM220900 VRB03KT P6SM VCSH SCT060 OVC100 FM221400 14005KT 6SM -SHRA SCT020 OVC060 FM221700 14005KT 3SM -SHRA BKN020 OVC050 AMD NOT SKED
KHPN 
17nm SE 
211740Z 2118/2218 VRB05KT P6SM SCT250 FM211930 18006KT P6SM FEW250 FM220000 VRB02KT P6SM FEW250 FM220500 00000KT P6SM SCT100 BKN150 BKN250 FM221300 11005KT P6SM VCSH SCT020 BKN060 OVC100 AMD NOT SKED
NOTAMs
Click for the latest NOTAMs
NOTAMs are issued by the DoD/FAA and will open in a separate window not controlled by AirNav.

 

 
 

Would you like to see your business listed on this page?

 If your business provides an interesting product or service to pilots, flight crews, aircraft, or users of the Westchester Resco Heliport, you should consider listing it here.  To start the listing process, click on the button below
 
Add a business
 

Other Pages about Westchester Resco Heliport

Update a link
 
Copyright © AirNav, LLC. All rights reserved. Privacy Policy  Contact